VIE weather

Vienna International Airport
Vienna, Vienna, Austria

Public forecast

Using degrees Celsius for public forecast. Weather courtesy of forecast.io.

METAR (pilot weather report)

Retrieved 2018/12/13 02:20 UTC (1 hour ago):

LOWW 130220Z 34004KT 7000 FEW007 BKN008 M02/M03 Q1021 R88/19//95 BECMG BKN009

TAF (pilot weather forecast)

Retrieved 2018/12/13 03:21 UTC (14 minutes ago):

TAF LOWW 130215Z 1303/1409 36005KT 7000 FEW006 BKN008 TX01/1311Z TNM03/1405Z TEMPO 1303/1309 4000 BR FEW002 BKN004 BECMG 1310/1312 08005KT FEW007 OVC012 FM131800 12005KT 4000 BR FEW003 BKN007 TEMPO 1322/1408 2000 FEW002 BKN003 PROB30 TEMPO 1400/1406 1200 FZBCFG BKN002 TEMPO 1408/1409 FEW009 BKN012